Time;durP1;ratioP1;P1;durP2;ratioP2;P2;SDS_P1;SDS_P2;PMS_P1;PMS_P2;Temp;Humidity;BMP_temperature;BMP_pressure;BME280_temperature;BME280_humidity;BME280_pressure;Samples;Min_cycle;Max_cycle;Signal;HPM_P1;HPM_P2
2023/11/29 00:01:45;;;;;;;8.15;5.90;;;-2.00;99.90;;;;;;5008663;28;20026;-86
2023/11/29 00:04:11;;;;;;;11.07;6.88;;;-2.10;99.90;;;;;;5010776;28;20021;-86
2023/11/29 00:06:36;;;;;;;10.60;5.97;;;-2.00;99.90;;;;;;5005343;28;20040;-86
2023/11/29 00:09:02;;;;;;;10.30;6.75;;;-2.10;99.90;;;;;;5008807;28;20025;-85
2023/11/29 00:11:28;;;;;;;8.90;6.18;;;-2.00;99.90;;;;;;5011528;28;20032;-86
2023/11/29 00:13:54;;;;;;;10.48;7.07;;;-2.00;99.90;;;;;;5010838;28;20037;-85
2023/11/29 00:16:20;;;;;;;10.98;6.30;;;-2.00;99.90;;;;;;5010270;28;20033;-85
2023/11/29 00:18:45;;;;;;;10.27;6.78;;;-2.00;99.90;;;;;;5013763;28;20547;-86
2023/11/29 00:21:11;;;;;;;9.30;6.45;;;-2.00;99.90;;;;;;5011339;28;20030;-86
2023/11/29 00:23:37;;;;;;;9.00;5.93;;;-2.00;99.90;;;;;;5009660;28;20033;-86
2023/11/29 00:26:02;;;;;;;12.48;7.40;;;-2.00;99.90;;;;;;5010295;28;20029;-86
2023/11/29 00:28:28;;;;;;;8.18;6.30;;;-2.00;99.90;;;;;;5009890;28;20119;-86
2023/11/29 00:30:53;;;;;;;10.48;7.10;;;-2.00;99.90;;;;;;5008814;28;20029;-85
2023/11/29 00:33:19;;;;;;;9.18;5.70;;;-2.00;99.90;;;;;;5011675;28;20033;-86
2023/11/29 00:35:44;;;;;;;10.25;6.57;;;-2.00;99.90;;;;;;5010383;28;20457;-88
2023/11/29 00:38:10;;;;;;;10.85;7.00;;;-1.90;99.90;;;;;;5012376;28;20143;-87
2023/11/29 00:40:36;;;;;;;9.70;6.72;;;-1.90;99.90;;;;;;5013428;28;20120;-86
2023/11/29 00:43:01;;;;;;;11.13;7.07;;;-1.90;99.90;;;;;;5010433;28;20112;-87
2023/11/29 00:45:27;;;;;;;11.75;7.30;;;-1.90;99.90;;;;;;5027347;28;20036;-86
2023/11/29 00:47:52;;;;;;;9.48;6.15;;;-1.90;99.90;;;;;;5025329;28;20029;-87
2023/11/29 00:50:17;;;;;;;12.07;6.88;;;-1.80;99.90;;;;;;5006795;28;20026;-86
2023/11/29 00:52:43;;;;;;;9.52;6.80;;;-1.80;99.90;;;;;;5004112;28;20576;-86
2023/11/29 00:55:08;;;;;;;8.85;6.50;;;-1.80;99.90;;;;;;5008192;28;20113;-86
2023/11/29 00:57:34;;;;;;;9.30;6.53;;;-1.80;99.90;;;;;;5010700;28;20060;-87
2023/11/29 01:00:00;;;;;;;10.00;6.93;;;-1.80;99.90;;;;;;5011105;28;20112;-86
2023/11/29 01:02:25;;;;;;;10.43;6.72;;;-1.70;99.90;;;;;;5009214;28;20133;-86
2023/11/29 01:04:50;;;;;;;8.07;6.03;;;-1.80;99.90;;;;;;5008495;28;20028;-86
2023/11/29 01:07:16;;;;;;;10.95;8.07;;;-1.70;99.90;;;;;;5024992;28;20021;-86
2023/11/29 01:09:42;;;;;;;11.13;6.53;;;-1.70;99.90;;;;;;5010901;28;20063;-86
2023/11/29 01:12:08;;;;;;;10.95;7.78;;;-1.70;99.90;;;;;;5005306;28;20539;-86
2023/11/29 01:14:35;;;;;;;11.77;7.47;;;-1.70;99.90;;;;;;5004901;28;20029;-86
2023/11/29 01:17:00;;;;;;;12.75;7.57;;;-1.70;99.90;;;;;;5010208;28;20021;-86
2023/11/29 01:19:26;;;;;;;12.35;6.95;;;-1.70;99.90;;;;;;5027999;28;20040;-86
2023/11/29 01:21:52;;;;;;;11.13;7.35;;;-1.60;99.90;;;;;;5011063;28;20014;-85
2023/11/29 01:24:17;;;;;;;12.73;7.95;;;-1.60;99.90;;;;;;5009181;28;20024;-86
2023/11/29 01:26:43;;;;;;;10.93;7.22;;;-1.60;99.90;;;;;;5026952;28;20026;-86
2023/11/29 01:29:08;;;;;;;14.15;7.97;;;-1.60;99.90;;;;;;5027891;28;20025;-86
2023/11/29 01:31:34;;;;;;;14.25;8.70;;;-1.50;99.90;;;;;;5013384;28;20033;-85
2023/11/29 01:33:59;;;;;;;16.05;9.60;;;-1.50;99.90;;;;;;5021756;28;20041;-85
2023/11/29 01:36:25;;;;;;;18.52;10.38;;;-1.40;99.90;;;;;;5030668;28;20060;-86
2023/11/29 01:38:51;;;;;;;16.23;10.30;;;-1.40;99.90;;;;;;5015477;28;20029;-86
2023/11/29 01:41:16;;;;;;;16.05;9.95;;;-1.30;99.90;;;;;;5010772;28;20022;-86
2023/11/29 01:43:42;;;;;;;16.52;10.48;;;-1.30;99.90;;;;;;5030399;28;20018;-86
2023/11/29 01:46:08;;;;;;;20.38;11.57;;;-1.30;99.90;;;;;;5010616;28;20014;-86
2023/11/29 01:48:35;;;;;;;18.45;11.73;;;-1.20;99.90;;;;;;5013928;28;20034;-86
2023/11/29 01:51:01;;;;;;;17.60;11.60;;;-1.20;99.90;;;;;;5009254;28;20049;-86
2023/11/29 01:53:27;;;;;;;19.92;13.27;;;-1.20;99.90;;;;;;5009660;28;20037;-85
2023/11/29 01:55:54;;;;;;;17.20;12.02;;;-1.10;99.90;;;;;;5009215;28;20025;-86
2023/11/29 01:58:20;;;;;;;24.60;13.85;;;-1.10;99.90;;;;;;5016410;28;20097;-86
2023/11/29 02:00:47;;;;;;;19.65;11.85;;;-1.10;99.90;;;;;;5009723;28;20431;-87
2023/11/29 02:03:13;;;;;;;25.05;14.68;;;-1.00;99.90;;;;;;5014447;28;20501;-85
2023/11/29 02:05:39;;;;;;;26.05;15.02;;;-1.00;99.90;;;;;;5015072;28;20030;-86
2023/11/29 02:08:04;;;;;;;24.58;15.30;;;-1.00;99.90;;;;;;5015443;28;20104;-85
2023/11/29 02:10:30;;;;;;;24.60;14.57;;;-1.00;99.90;;;;;;5014038;28;20033;-86
2023/11/29 02:12:56;;;;;;;30.73;16.42;;;-0.90;99.90;;;;;;5011890;28;20061;-86
2023/11/29 02:15:21;;;;;;;25.15;16.73;;;-0.90;99.90;;;;;;5016889;28;20429;-85
2023/11/29 02:17:47;;;;;;;22.55;13.38;;;-0.80;99.90;;;;;;5027958;28;20029;-85
2023/11/29 02:20:14;;;;;;;32.47;17.63;;;-0.80;99.90;;;;;;5032661;28;20029;-86
2023/11/29 02:22:42;;;;;;;27.67;17.05;;;-0.70;99.90;;;;;;5015263;28;20040;-86
2023/11/29 02:25:08;;;;;;;24.85;15.95;;;-0.70;99.90;;;;;;5015979;28;20090;-85
2023/11/29 02:27:34;;;;;;;28.20;16.38;;;-0.60;99.90;;;;;;5015194;28;20017;-86
2023/11/29 02:29:59;;;;;;;31.50;17.20;;;-0.60;99.90;;;;;;5013243;28;20036;-85
2023/11/29 02:32:25;;;;;;;23.08;14.63;;;-0.50;99.90;;;;;;5018005;28;20397;-85
2023/11/29 02:34:50;;;;;;;24.88;16.65;;;-0.50;99.90;;;;;;5010991;28;20029;-85
2023/11/29 02:37:16;;;;;;;22.50;16.00;;;-0.50;99.90;;;;;;5018687;28;20025;-85
2023/11/29 02:39:41;;;;;;;24.38;14.40;;;-0.50;99.90;;;;;;5032076;28;20560;-88
2023/11/29 02:42:07;;;;;;;25.70;16.45;;;-0.40;99.90;;;;;;5017763;28;20018;-86
2023/11/29 02:44:32;;;;;;;24.98;18.02;;;-0.40;99.90;;;;;;5033399;28;20029;-85
2023/11/29 02:46:58;;;;;;;25.92;17.48;;;-0.40;99.90;;;;;;4994714;28;20029;-86
2023/11/29 02:49:24;;;;;;;26.67;17.73;;;-0.40;99.90;;;;;;5023430;28;20051;-86
2023/11/29 02:51:50;;;;;;;24.02;15.85;;;-0.40;99.90;;;;;;5004293;28;20490;-85
2023/11/29 02:54:17;;;;;;;27.90;17.80;;;-0.30;99.90;;;;;;5005141;28;20033;-85
2023/11/29 02:56:43;;;;;;;24.30;16.65;;;-0.30;99.90;;;;;;5023788;28;20124;-85
2023/11/29 02:59:09;;;;;;;25.30;17.88;;;-0.30;99.90;;;;;;5027608;28;20065;-86
2023/11/29 03:01:34;;;;;;;28.58;17.98;;;-0.30;99.90;;;;;;5010551;28;20025;-85
2023/11/29 03:04:00;;;;;;;27.35;18.35;;;-0.30;99.90;;;;;;5008367;28;20036;-85
2023/11/29 03:06:25;;;;;;;26.38;16.10;;;-0.20;99.90;;;;;;5023135;28;20033;-85
2023/11/29 03:08:51;;;;;;;26.15;19.40;;;-0.20;99.90;;;;;;5010371;28;20054;-84
2023/11/29 03:11:16;;;;;;;26.48;18.67;;;-0.20;99.90;;;;;;5011137;28;20063;-85
2023/11/29 03:13:42;;;;;;;22.15;16.23;;;-0.20;99.90;;;;;;5003992;28;20026;-84
2023/11/29 03:16:08;;;;;;;23.88;17.55;;;-0.10;99.90;;;;;;5005342;28;20025;-84
2023/11/29 03:18:33;;;;;;;27.80;18.80;;;-0.10;99.90;;;;;;5009448;28;20544;-84
2023/11/29 03:20:59;;;;;;;24.90;18.33;;;-0.10;99.90;;;;;;5010706;28;20112;-84
2023/11/29 03:23:24;;;;;;;24.30;17.40;;;-0.10;99.90;;;;;;5004806;28;20379;-84
2023/11/29 03:25:50;;;;;;;23.58;16.40;;;-0.10;99.90;;;;;;5008755;28;20029;-84
2023/11/29 03:28:15;;;;;;;32.15;18.67;;;-0.10;99.90;;;;;;5005435;28;20032;-84
2023/11/29 03:30:41;;;;;;;22.27;16.92;;;-0.10;99.90;;;;;;5005960;28;20029;-84
2023/11/29 03:33:06;;;;;;;22.23;15.55;;;-0.10;99.90;;;;;;5009762;28;20120;-86
2023/11/29 03:35:32;;;;;;;27.58;17.98;;;-0.10;99.90;;;;;;5009646;28;20497;-86
2023/11/29 03:37:57;;;;;;;27.52;18.25;;;-0.10;99.90;;;;;;5002520;28;20601;-85
2023/11/29 03:40:23;;;;;;;23.50;17.00;;;-0.10;99.90;;;;;;5003740;28;20625;-85
2023/11/29 03:42:48;;;;;;;23.52;16.65;;;-0.10;99.90;;;;;;5022062;28;20025;-87
2023/11/29 03:45:14;;;;;;;24.50;17.45;;;-0.10;99.90;;;;;;5008373;28;20067;-86
2023/11/29 03:47:40;;;;;;;24.70;17.08;;;-0.10;99.90;;;;;;5008934;28;20036;-87
2023/11/29 03:50:06;;;;;;;26.40;16.60;;;-0.10;99.90;;;;;;5001761;28;20112;-87
2023/11/29 03:52:31;;;;;;;21.08;16.33;;;0.00;99.90;;;;;;5012585;28;20052;-87
2023/11/29 03:54:57;;;;;;;24.02;16.40;;;0.00;99.90;;;;;;5027377;28;20026;-86
2023/11/29 03:57:23;;;;;;;25.75;17.15;;;0.00;99.90;;;;;;5024095;28;20053;-86
2023/11/29 03:59:48;;;;;;;24.98;16.88;;;0.00;99.90;;;;;;5027004;28;20057;-86
2023/11/29 04:02:14;;;;;;;22.58;16.65;;;0.00;99.90;;;;;;5010553;28;20026;-88
2023/11/29 04:04:39;;;;;;;26.20;16.85;;;0.00;99.90;;;;;;5006533;28;20021;-86
2023/11/29 04:07:06;;;;;;;26.63;16.48;;;0.00;99.90;;;;;;4994708;28;20120;-86
2023/11/29 04:09:32;;;;;;;26.23;17.67;;;0.00;99.90;;;;;;5004650;28;20128;-87
2023/11/29 04:11:58;;;;;;;28.95;17.42;;;0.00;99.90;;;;;;5005188;28;20036;-86
2023/11/29 04:14:23;;;;;;;26.55;17.60;;;0.10;99.90;;;;;;5006283;28;20136;-86
2023/11/29 04:16:49;;;;;;;24.67;16.40;;;0.10;99.90;;;;;;5005301;28;20026;-84
2023/11/29 04:19:14;;;;;;;24.33;18.13;;;0.10;99.90;;;;;;5004588;28;20022;-86
2023/11/29 04:21:40;;;;;;;23.55;17.25;;;0.10;99.90;;;;;;5005456;28;20024;-85
2023/11/29 04:24:06;;;;;;;26.95;17.10;;;0.10;99.90;;;;;;5011960;28;20022;-86
2023/11/29 04:26:33;;;;;;;25.67;17.73;;;0.10;99.90;;;;;;5003442;28;20028;-87
2023/11/29 04:29:00;;;;;;;23.27;15.93;;;0.10;99.90;;;;;;5009773;28;20645;-85
2023/11/29 04:31:29;;;;;;;21.75;15.95;;;0.10;99.90;;;;;;5009379;28;20535;-86
2023/11/29 04:33:54;;;;;;;23.73;16.88;;;0.10;99.90;;;;;;5006433;28;20014;-85
2023/11/29 04:36:20;;;;;;;25.40;17.63;;;0.10;99.90;;;;;;5006628;28;20018;-86
2023/11/29 04:38:46;;;;;;;23.33;15.95;;;0.00;99.90;;;;;;5006374;28;20025;-86
2023/11/29 04:41:12;;;;;;;25.05;16.60;;;0.00;99.90;;;;;;5004951;28;20022;-85
2023/11/29 04:43:37;;;;;;;26.48;17.83;;;0.00;99.90;;;;;;5011781;28;20075;-85
2023/11/29 04:46:03;;;;;;;21.50;15.43;;;0.10;99.90;;;;;;5013193;28;20148;-87
2023/11/29 04:48:30;;;;;;;23.88;16.13;;;0.10;99.90;;;;;;5025337;28;20035;-86
2023/11/29 04:50:56;;;;;;;20.80;15.10;;;0.10;99.90;;;;;;5006042;28;20032;-86
2023/11/29 04:53:22;;;;;;;19.75;14.75;;;0.10;99.90;;;;;;5002394;28;20100;-85
2023/11/29 04:55:48;;;;;;;20.75;15.32;;;0.10;99.90;;;;;;5005781;28;20022;-86
2023/11/29 04:58:15;;;;;;;22.17;16.38;;;0.10;99.90;;;;;;5006665;28;20104;-86
2023/11/29 05:00:40;;;;;;;21.23;15.43;;;0.10;99.90;;;;;;5007057;28;20071;-86
2023/11/29 05:03:06;;;;;;;20.42;14.30;;;0.10;99.90;;;;;;5007702;28;20025;-85
2023/11/29 05:05:31;;;;;;;18.20;12.48;;;0.10;99.90;;;;;;5007224;28;20020;-85
2023/11/29 05:07:57;;;;;;;15.38;12.73;;;0.10;99.90;;;;;;5010115;28;20029;-84
2023/11/29 05:10:22;;;;;;;17.60;12.50;;;0.10;99.90;;;;;;5004386;28;20029;-86
2023/11/29 05:12:48;;;;;;;16.83;12.40;;;0.10;99.90;;;;;;5008096;28;20034;-86
2023/11/29 05:15:13;;;;;;;18.42;12.50;;;0.10;99.90;;;;;;5009795;28;20093;-85
2023/11/29 05:17:39;;;;;;;20.23;14.60;;;0.10;99.90;;;;;;5007150;28;20033;-85
2023/11/29 05:20:05;;;;;;;19.92;12.88;;;0.10;99.90;;;;;;5010121;28;20053;-86
2023/11/29 05:22:31;;;;;;;18.20;13.27;;;0.10;99.90;;;;;;5011238;28;20108;-84
2023/11/29 05:24:57;;;;;;;15.05;11.93;;;0.20;99.90;;;;;;5021615;28;20061;-84
2023/11/29 05:27:23;;;;;;;17.88;13.02;;;0.20;99.90;;;;;;5011601;28;20092;-85
2023/11/29 05:29:49;;;;;;;15.32;11.73;;;0.10;99.90;;;;;;5006205;28;20022;-85
2023/11/29 05:32:15;;;;;;;16.42;11.90;;;0.20;99.90;;;;;;5013227;28;20025;-84
2023/11/29 05:34:40;;;;;;;16.45;11.70;;;0.20;99.90;;;;;;5006569;28;20038;-86
2023/11/29 05:37:06;;;;;;;16.17;11.10;;;0.20;99.90;;;;;;5013105;28;20026;-85
2023/11/29 05:39:31;;;;;;;15.43;11.23;;;0.20;99.90;;;;;;5011962;28;20683;-85
2023/11/29 05:41:57;;;;;;;16.58;12.02;;;0.20;99.90;;;;;;5008610;28;20030;-87
2023/11/29 05:44:22;;;;;;;15.63;11.93;;;0.20;99.90;;;;;;5023184;28;20799;-85
2023/11/29 05:46:48;;;;;;;13.95;11.50;;;0.10;99.90;;;;;;5010639;28;20018;-86
2023/11/29 05:49:13;;;;;;;16.17;11.82;;;0.10;99.90;;;;;;5001411;28;20026;-85
2023/11/29 05:51:39;;;;;;;14.63;10.48;;;0.20;99.90;;;;;;5006264;28;20485;-85
2023/11/29 05:54:04;;;;;;;14.00;10.88;;;0.20;99.90;;;;;;5005062;28;20026;-86
2023/11/29 05:56:30;;;;;;;11.95;9.68;;;0.20;99.90;;;;;;5007528;28;20025;-85
2023/11/29 05:58:56;;;;;;;13.38;10.45;;;0.20;99.90;;;;;;5007352;28;20558;-85
2023/11/29 06:01:22;;;;;;;13.38;9.75;;;0.20;99.90;;;;;;5010964;28;20029;-86
2023/11/29 06:03:47;;;;;;;15.52;10.95;;;0.20;99.90;;;;;;5016560;28;20029;-86
2023/11/29 06:06:13;;;;;;;16.40;11.18;;;0.20;99.90;;;;;;5012611;28;20025;-85
2023/11/29 06:08:40;;;;;;;12.48;10.20;;;0.20;99.90;;;;;;4994403;28;20394;-86
2023/11/29 06:11:07;;;;;;;15.55;10.75;;;0.20;99.90;;;;;;4954528;28;20036;-85
2023/11/29 06:13:33;;;;;;;12.65;10.32;;;0.20;99.90;;;;;;4960916;28;20057;-85
2023/11/29 06:15:59;;;;;;;13.48;11.48;;;0.20;99.90;;;;;;4953204;28;20045;-86
2023/11/29 06:18:25;;;;;;;13.32;9.80;;;0.10;99.90;;;;;;4964686;28;20061;-85
2023/11/29 06:20:50;;;;;;;13.65;10.77;;;0.10;99.90;;;;;;4916716;28;20079;-87
2023/11/29 06:23:17;;;;;;;14.70;10.98;;;0.10;99.90;;;;;;4959874;28;20037;-85
2023/11/29 06:25:43;;;;;;;14.10;11.15;;;0.20;99.90;;;;;;4964597;28;20036;-81
2023/11/29 06:28:08;;;;;;;15.75;10.65;;;0.20;99.90;;;;;;4908793;28;20025;-82
2023/11/29 06:30:34;;;;;;;12.55;10.02;;;0.20;99.90;;;;;;5008181;28;20048;-82
2023/11/29 06:32:59;;;;;;;15.52;10.68;;;0.20;99.90;;;;;;5013585;28;20048;-82
2023/11/29 06:35:25;;;;;;;16.05;11.70;;;0.20;99.90;;;;;;4986646;28;20172;-84
2023/11/29 06:37:50;;;;;;;13.98;10.98;;;0.20;99.90;;;;;;5007009;28;20072;-83
2023/11/29 06:40:16;;;;;;;14.93;12.68;;;0.10;99.90;;;;;;4906835;28;20520;-83
2023/11/29 06:42:47;;;;;;;13.13;9.98;;;0.10;99.90;;;;;;4905543;28;20071;-84
2023/11/29 06:45:13;;;;;;;14.30;10.75;;;0.10;99.90;;;;;;4901252;28;21705;-82
2023/11/29 06:47:39;;;;;;;15.88;11.38;;;0.10;99.90;;;;;;4950796;28;20058;-82
2023/11/29 06:50:05;;;;;;;13.98;10.70;;;0.10;99.90;;;;;;4958301;28;20082;-83
2023/11/29 06:52:31;;;;;;;18.13;11.75;;;0.10;99.90;;;;;;5022961;28;20025;-83
2023/11/29 06:54:57;;;;;;;19.42;12.93;;;0.10;99.90;;;;;;5025426;28;20203;-83
2023/11/29 06:57:23;;;;;;;20.35;13.93;;;0.10;99.90;;;;;;5012015;28;20557;-83
2023/11/29 06:59:49;;;;;;;20.90;14.40;;;0.10;99.90;;;;;;5027820;28;20037;-83
2023/11/29 07:02:14;;;;;;;27.63;16.02;;;0.10;99.90;;;;;;5012736;28;20030;-83
2023/11/29 07:04:43;;;;;;;29.95;18.92;;;0.10;99.90;;;;;;5011502;28;20038;-83
2023/11/29 07:07:09;;;;;;;23.95;16.00;;;0.10;99.90;;;;;;5029381;28;20478;-83
2023/11/29 07:09:35;;;;;;;47.67;23.85;;;0.10;99.90;;;;;;5009305;28;20048;-83
2023/11/29 07:12:01;;;;;;;45.58;24.23;;;0.10;99.90;;;;;;5013550;28;20037;-83
2023/11/29 07:14:27;;;;;;;46.58;25.48;;;0.20;99.90;;;;;;5026565;28;20057;-82
2023/11/29 07:16:52;;;;;;;32.17;19.90;;;0.20;99.90;;;;;;5025453;28;20057;-83
2023/11/29 07:19:19;;;;;;;67.32;29.55;;;0.20;99.90;;;;;;5009498;28;20036;-83
2023/11/29 07:21:44;;;;;;;26.50;19.70;;;0.20;99.90;;;;;;5012660;28;20087;-82
2023/11/29 07:24:10;;;;;;;19.20;14.73;;;0.20;99.90;;;;;;5015808;28;20041;-83
2023/11/29 07:26:36;;;;;;;19.65;14.75;;;0.20;99.90;;;;;;5023615;28;20528;-83
2023/11/29 07:29:03;;;;;;;23.65;16.63;;;0.20;99.90;;;;;;5014059;28;20044;-83
2023/11/29 07:31:29;;;;;;;23.15;17.27;;;0.20;99.90;;;;;;5012862;28;20141;-84
2023/11/29 07:33:56;;;;;;;24.30;18.25;;;0.20;99.90;;;;;;5011233;28;20025;-83
2023/11/29 07:36:22;;;;;;;28.80;17.33;;;0.20;99.90;;;;;;5010565;28;20030;-83
2023/11/29 07:38:48;;;;;;;21.55;15.50;;;0.20;99.90;;;;;;5026972;28;20030;-83
2023/11/29 07:41:15;;;;;;;24.00;15.43;;;0.20;99.90;;;;;;5010968;28;20052;-83
2023/11/29 07:43:41;;;;;;;25.42;15.02;;;0.20;99.90;;;;;;5010003;28;20032;-83
2023/11/29 07:46:06;;;;;;;18.95;14.38;;;0.20;99.90;;;;;;5007410;28;20034;-82
2023/11/29 07:48:33;;;;;;;21.30;13.63;;;0.20;99.90;;;;;;5014056;28;20026;-83
2023/11/29 07:50:59;;;;;;;20.15;13.98;;;0.20;99.90;;;;;;5010829;28;20142;-84
2023/11/29 07:53:25;;;;;;;20.08;14.75;;;0.20;99.90;;;;;;5028559;28;20124;-83
2023/11/29 07:55:51;;;;;;;17.90;13.38;;;0.20;99.90;;;;;;5006464;28;20512;-83
2023/11/29 07:58:16;;;;;;;16.23;12.38;;;0.20;99.90;;;;;;5011603;28;20029;-84
2023/11/29 08:00:42;;;;;;;17.92;12.77;;;0.20;99.90;;;;;;5010699;28;20044;-83
2023/11/29 08:03:08;;;;;;;16.05;11.50;;;0.20;99.90;;;;;;5013024;28;20029;-83
2023/11/29 08:05:34;;;;;;;19.77;13.88;;;0.20;99.90;;;;;;5029322;28;20033;-84
2023/11/29 08:08:00;;;;;;;18.58;12.98;;;0.20;99.90;;;;;;5014283;28;20116;-83
2023/11/29 08:10:26;;;;;;;19.05;13.32;;;0.20;99.90;;;;;;5012376;28;20406;-84
2023/11/29 08:12:52;;;;;;;20.40;14.48;;;0.20;99.90;;;;;;5009595;28;20030;-83
2023/11/29 08:15:18;;;;;;;22.73;14.63;;;0.30;99.90;;;;;;5008940;28;20036;-82
2023/11/29 08:17:43;;;;;;;19.48;13.48;;;0.30;99.90;;;;;;5005772;28;20033;-82
2023/11/29 08:20:09;;;;;;;20.50;14.73;;;0.30;99.90;;;;;;5013845;28;20501;-83
2023/11/29 08:22:35;;;;;;;17.75;13.20;;;0.30;99.90;;;;;;5014458;28;20036;-83
2023/11/29 08:25:01;;;;;;;19.25;12.57;;;0.30;99.90;;;;;;5011391;28;20029;-82
2023/11/29 08:27:26;;;;;;;20.95;14.23;;;0.30;99.90;;;;;;5029507;28;20029;-83
2023/11/29 08:29:52;;;;;;;20.63;15.25;;;0.30;99.90;;;;;;5009501;28;20021;-82
2023/11/29 08:32:18;;;;;;;20.02;14.93;;;0.30;99.90;;;;;;5012866;28;20026;-83
2023/11/29 08:34:44;;;;;;;20.40;15.23;;;0.30;99.90;;;;;;5010266;28;20036;-84
2023/11/29 08:37:10;;;;;;;19.42;13.02;;;0.30;99.90;;;;;;5026987;28;20017;-83
2023/11/29 08:39:36;;;;;;;20.70;14.85;;;0.30;99.90;;;;;;5014056;28;20025;-82
2023/11/29 08:42:02;;;;;;;23.15;15.35;;;0.30;99.90;;;;;;5027123;28;20093;-82
2023/11/29 08:44:28;;;;;;;18.25;14.77;;;0.30;99.90;;;;;;5009067;28;20025;-82
2023/11/29 08:46:53;;;;;;;19.70;13.48;;;0.30;99.90;;;;;;5024097;28;20021;-82
2023/11/29 08:49:19;;;;;;;20.00;14.00;;;0.30;99.90;;;;;;5008340;28;20064;-82
2023/11/29 08:51:45;;;;;;;20.73;15.70;;;0.30;99.90;;;;;;5006845;28;20080;-83
2023/11/29 08:54:10;;;;;;;20.40;14.07;;;0.40;99.90;;;;;;5023433;28;20085;-83
2023/11/29 08:56:36;;;;;;;20.42;13.77;;;0.40;99.90;;;;;;5015121;28;20036;-84
2023/11/29 08:59:04;;;;;;;17.33;13.65;;;0.40;99.90;;;;;;5015174;28;20022;-85
2023/11/29 09:01:31;;;;;;;22.15;15.25;;;0.40;99.90;;;;;;5007290;28;20030;-84
2023/11/29 09:03:57;;;;;;;21.20;14.45;;;0.40;99.90;;;;;;5015060;28;20022;-84
2023/11/29 09:06:23;;;;;;;22.48;15.45;;;0.40;99.90;;;;;;5018493;28;20101;-85
2023/11/29 09:08:48;;;;;;;21.10;14.70;;;0.40;99.90;;;;;;5013402;28;20026;-85
2023/11/29 09:11:14;;;;;;;23.40;14.07;;;0.40;99.90;;;;;;5011170;28;20141;-84
2023/11/29 09:13:40;;;;;;;17.85;13.00;;;0.40;99.90;;;;;;5012101;28;20564;-86
2023/11/29 09:16:06;;;;;;;20.70;14.10;;;0.40;99.90;;;;;;5013785;28;20137;-85
2023/11/29 09:18:32;;;;;;;17.20;13.23;;;0.40;99.90;;;;;;5013686;28;20701;-85
2023/11/29 09:20:59;;;;;;;19.35;14.70;;;0.40;99.90;;;;;;5008948;28;20041;-85
2023/11/29 09:23:25;;;;;;;20.15;14.45;;;0.40;99.90;;;;;;5013784;28;20546;-84
2023/11/29 09:25:50;;;;;;;18.58;13.38;;;0.50;99.90;;;;;;5007290;28;20674;-86
2023/11/29 09:28:16;;;;;;;18.60;14.35;;;0.50;99.90;;;;;;5013179;28;20022;-85
2023/11/29 09:30:42;;;;;;;20.13;13.68;;;0.50;99.90;;;;;;5010505;28;20026;-84
2023/11/29 09:33:09;;;;;;;20.30;14.50;;;0.60;99.90;;;;;;5012984;28;20041;-85
2023/11/29 09:35:34;;;;;;;23.42;15.75;;;0.60;99.90;;;;;;5015295;28;20092;-85
2023/11/29 09:38:00;;;;;;;20.85;14.50;;;0.50;99.90;;;;;;5017818;28;20488;-85
2023/11/29 09:40:26;;;;;;;20.42;15.77;;;0.60;99.90;;;;;;5015175;28;20041;-85
2023/11/29 09:42:53;;;;;;;18.85;13.20;;;0.60;99.90;;;;;;5018151;28;20040;-84
2023/11/29 09:45:25;;;;;;;22.75;14.85;;;0.60;99.90;;;;;;5017149;28;20025;-85
2023/11/29 09:47:51;;;;;;;19.25;14.32;;;0.60;99.90;;;;;;5016592;28;20025;-84
2023/11/29 09:50:20;;;;;;;21.40;14.23;;;0.60;99.90;;;;;;5018996;28;20033;-85
2023/11/29 09:52:46;;;;;;;19.02;14.13;;;0.70;99.90;;;;;;5029477;28;20025;-84
2023/11/29 09:55:12;;;;;;;17.77;12.90;;;0.70;99.90;;;;;;5013800;28;20030;-84
2023/11/29 09:57:38;;;;;;;17.67;13.55;;;0.70;99.90;;;;;;5021577;28;20033;-85
2023/11/29 10:00:10;;;;;;;17.30;12.55;;;0.70;99.90;;;;;;5016369;28;20045;-84
2023/11/29 10:02:37;;;;;;;18.48;12.85;;;0.70;99.90;;;;;;5014802;28;20054;-84
2023/11/29 10:05:03;;;;;;;22.48;14.77;;;0.70;99.90;;;;;;5010989;28;20022;-84
2023/11/29 10:07:29;;;;;;;17.88;12.68;;;0.70;99.90;;;;;;5029444;28;20053;-86
2023/11/29 10:10:05;;;;;;;15.30;11.85;;;0.70;99.90;;;;;;5023077;28;20018;-85
2023/11/29 10:12:30;;;;;;;18.60;13.15;;;0.70;99.90;;;;;;5023790;28;20414;-84
2023/11/29 10:14:56;;;;;;;16.55;13.13;;;0.70;99.90;;;;;;5013425;28;20050;-86
2023/11/29 10:17:22;;;;;;;25.52;15.70;;;0.70;99.90;;;;;;5014837;28;20021;-85
2023/11/29 10:19:47;;;;;;;21.67;15.13;;;0.70;99.90;;;;;;5014297;28;20030;-86
2023/11/29 10:22:17;;;;;;;18.90;12.95;;;0.70;99.90;;;;;;5010882;28;20062;-84
2023/11/29 10:24:43;;;;;;;16.00;12.27;;;0.70;99.90;;;;;;5013577;28;20033;-85
2023/11/29 10:27:10;;;;;;;16.17;12.35;;;0.70;99.90;;;;;;5008016;28;20034;-84
2023/11/29 10:29:36;;;;;;;16.35;12.23;;;0.70;99.90;;;;;;5014579;28;20028;-85
2023/11/29 10:32:04;;;;;;;18.23;11.82;;;0.60;99.90;;;;;;5012464;28;20530;-85
2023/11/29 10:34:32;;;;;;;18.13;12.32;;;0.70;99.90;;;;;;5013526;28;20124;-86
2023/11/29 10:37:00;;;;;;;18.00;12.43;;;0.70;99.90;;;;;;5016051;28;20113;-85
2023/11/29 10:39:31;;;;;;;18.67;12.13;;;0.70;99.90;;;;;;5007317;28;20705;-85
2023/11/29 10:41:58;;;;;;;15.18;11.63;;;0.70;99.90;;;;;;5014208;28;20493;-88
2023/11/29 10:44:40;;;;;;;17.10;12.60;;;0.70;99.90;;;;;;5015214;28;20026;-85
2023/11/29 10:47:19;;;;;;;16.15;11.85;;;0.70;99.90;;;;;;5013327;28;20064;-85
2023/11/29 10:49:53;;;;;;;20.00;12.50;;;0.70;99.90;;;;;;5003117;28;20083;-85
2023/11/29 10:52:18;;;;;;;18.83;12.57;;;0.80;99.90;;;;;;5008973;28;20100;-85
2023/11/29 10:54:49;;;;;;;15.23;11.82;;;0.70;99.90;;;;;;5010810;28;20033;-84
2023/11/29 10:57:21;;;;;;;18.08;12.18;;;0.70;99.90;;;;;;5006763;28;20121;-85
2023/11/29 10:59:54;;;;;;;18.02;12.38;;;0.70;99.90;;;;;;5008647;28;20021;-86
2023/11/29 11:02:19;;;;;;;18.85;13.15;;;0.70;99.90;;;;;;5007931;28;20024;-86
2023/11/29 11:05:08;;;;;;;19.52;13.30;;;0.70;99.90;;;;;;5006936;28;20022;-85
2023/11/29 11:07:45;;;;;;;17.80;12.15;;;0.70;99.90;;;;;;5007352;28;20521;-85
2023/11/29 11:10:34;;;;;;;15.50;11.43;;;0.70;99.90;;;;;;5009920;28;20036;-85
2023/11/29 11:13:02;;;;;;;18.73;13.40;;;0.70;99.90;;;;;;5008893;28;20297;-84
2023/11/29 11:15:28;;;;;;;18.02;13.35;;;0.80;99.90;;;;;;5018261;28;20366;-85
2023/11/29 11:18:09;;;;;;;19.90;12.75;;;0.70;99.90;;;;;;5019140;28;20264;-85
2023/11/29 11:20:59;;;;;;;19.70;12.80;;;0.80;99.90;;;;;;5011550;28;20030;-84
2023/11/29 11:23:26;;;;;;;14.98;11.48;;;0.80;99.90;;;;;;5012129;28;20025;-84
2023/11/29 11:25:58;;;;;;;16.90;11.45;;;0.70;99.90;;;;;;5011191;28;20457;-85
2023/11/29 11:28:29;;;;;;;14.25;10.57;;;0.70;99.90;;;;;;5012662;28;20373;-85
2023/11/29 11:30:56;;;;;;;16.05;10.82;;;0.70;99.90;;;;;;5013146;28;20048;-85
2023/11/29 11:33:22;;;;;;;14.23;10.52;;;0.70;99.90;;;;;;5013695;28;20040;-85
2023/11/29 11:35:47;;;;;;;13.98;10.52;;;0.70;99.90;;;;;;5009883;28;20140;-85
2023/11/29 11:38:13;;;;;;;13.38;10.10;;;0.70;99.90;;;;;;5008459;28;20034;-85
2023/11/29 11:40:40;;;;;;;11.52;8.48;;;0.60;99.90;;;;;;5012135;28;20033;-84
2023/11/29 11:43:08;;;;;;;11.52;8.10;;;0.50;99.90;;;;;;5011578;28;20018;-85
2023/11/29 11:45:36;;;;;;;10.63;8.18;;;0.40;99.90;;;;;;5011653;28;20022;-85
2023/11/29 11:48:06;;;;;;;10.98;7.55;;;0.40;99.90;;;;;;5015076;28;20021;-85
2023/11/29 11:50:32;;;;;;;11.57;7.78;;;0.30;99.90;;;;;;5018149;28;20079;-85
2023/11/29 11:53:03;;;;;;;14.00;8.88;;;0.30;99.90;;;;;;5012405;28;20049;-83
2023/11/29 11:55:29;;;;;;;10.65;8.25;;;0.20;99.90;;;;;;5013281;28;20029;-84
2023/11/29 11:57:58;;;;;;;13.23;9.00;;;0.20;99.90;;;;;;5014898;28;20044;-84
2023/11/29 12:00:23;;;;;;;13.50;9.10;;;0.10;99.90;;;;;;5013094;28;20044;-83
2023/11/29 12:02:50;;;;;;;12.80;8.88;;;0.10;99.90;;;;;;5010514;28;20405;-84
2023/11/29 12:05:16;;;;;;;13.00;8.50;;;0.10;99.90;;;;;;5009914;28;20037;-84
2023/11/29 12:07:43;;;;;;;14.25;8.98;;;0.10;99.90;;;;;;5010161;28;20049;-84
2023/11/29 12:10:11;;;;;;;11.50;8.07;;;0.10;99.90;;;;;;5010030;28;20024;-85
2023/11/29 12:12:37;;;;;;;14.32;8.63;;;0.10;99.90;;;;;;5009655;28;20037;-84
2023/11/29 12:15:04;;;;;;;11.05;8.10;;;0.20;99.90;;;;;;5003556;28;20044;-85
2023/11/29 12:17:35;;;;;;;10.63;7.28;;;0.10;99.90;;;;;;5011089;28;20029;-84
2023/11/29 12:20:19;;;;;;;12.57;7.72;;;0.10;99.90;;;;;;5010835;28;20037;-85
2023/11/29 12:22:47;;;;;;;11.50;7.78;;;0.10;99.90;;;;;;5007514;28;20112;-85
2023/11/29 12:25:15;;;;;;;11.07;7.57;;;0.20;99.90;;;;;;5005273;28;20415;-85
2023/11/29 12:27:49;;;;;;;13.32;7.88;;;0.10;99.90;;;;;;5008088;28;20028;-85
2023/11/29 12:30:15;;;;;;;9.20;7.25;;;0.10;99.90;;;;;;5012254;28;20029;-84
2023/11/29 12:32:41;;;;;;;12.40;8.05;;;0.20;99.90;;;;;;5005741;28;20493;-85